createdAt,value
2023-04-10T00:02:00.521Z,77.29
2023-04-10T00:04:28.525Z,78.50
2023-04-10T00:06:55.414Z,78.60
2023-04-10T00:09:21.903Z,77.48
2023-04-10T00:11:48.427Z,77.98
2023-04-10T00:14:14.877Z,79.61
2023-04-10T00:16:41.352Z,79.36
2023-04-10T00:19:08.125Z,76.89
2023-04-10T00:21:34.538Z,77.86
2023-04-10T00:24:00.982Z,78.09
2023-04-10T00:26:27.545Z,78.80
2023-04-10T00:28:54.037Z,79.21
2023-04-10T00:31:20.734Z,78.90
2023-04-10T00:33:47.298Z,79.86
2023-04-10T00:36:13.797Z,80.16
2023-04-10T00:38:40.409Z,79.86
2023-04-10T00:41:07.192Z,79.17
2023-04-10T00:43:33.719Z,79.69
2023-04-10T00:46:00.750Z,79.84
2023-04-10T00:48:27.735Z,79.23
2023-04-10T00:50:54.229Z,78.78
2023-04-10T00:53:22.005Z,78.56
2023-04-10T00:55:50.187Z,78.16
2023-04-10T00:58:16.799Z,77.14
2023-04-10T01:00:43.220Z,78.08
2023-04-10T01:03:11.689Z,79.15
2023-04-10T01:06:19.830Z,78.75
2023-04-10T01:08:52.256Z,77.79
2023-04-10T01:11:56.285Z,76.30
2023-04-10T01:14:47.651Z,76.48
2023-04-10T01:17:21.875Z,76.28
2023-04-10T01:20:02.040Z,76.44
2023-04-10T01:22:41.700Z,77.28
2023-04-10T01:25:19.280Z,76.77
2023-04-10T01:28:13.124Z,76.72
2023-04-10T01:30:41.055Z,76.67
2023-04-10T01:33:12.770Z,77.03
2023-04-10T01:35:43.340Z,77.23
2023-04-10T01:38:11.999Z,77.27
2023-04-10T01:40:39.818Z,77.34
2023-04-10T01:43:10.302Z,77.83
2023-04-10T01:45:38.397Z,77.94
2023-04-10T01:48:05.450Z,77.52
2023-04-10T01:50:32.792Z,76.62
2023-04-10T01:53:00.908Z,76.81
2023-04-10T01:55:27.740Z,76.25
2023-04-10T01:57:54.638Z,76.39
2023-04-10T02:00:21.169Z,76.76
2023-04-10T02:02:47.778Z,77.01
2023-04-10T02:05:16.513Z,78.31
2023-04-10T02:08:02.308Z,77.14
2023-04-10T02:10:31.447Z,77.13
2023-04-10T02:13:06.604Z,77.61
2023-04-10T02:15:35.237Z,77.31
2023-04-10T02:18:08.175Z,77.39
2023-04-10T02:20:34.680Z,77.18
2023-04-10T02:23:03.718Z,76.32
2023-04-10T02:25:34.461Z,77.43
2023-04-10T02:28:08.205Z,76.54
2023-04-10T02:30:34.875Z,77.56
2023-04-10T02:33:01.406Z,78.48
2023-04-10T02:35:29.144Z,77.87
2023-04-10T02:37:55.673Z,78.19
2023-04-10T02:40:22.205Z,79.61
2023-04-10T02:42:48.639Z,79.66
2023-04-10T02:45:15.349Z,79.61
2023-04-10T02:47:42.392Z,79.93
2023-04-10T02:50:09.320Z,80.25
2023-04-10T02:52:35.726Z,79.87
2023-04-10T02:55:02.136Z,79.62
2023-04-10T02:57:28.829Z,79.44
2023-04-10T02:59:55.807Z,78.43
2023-04-10T03:02:22.350Z,78.58
2023-04-10T03:04:48.807Z,78.65
2023-04-10T03:07:15.451Z,77.90
2023-04-10T03:09:41.888Z,77.75
2023-04-10T03:12:08.279Z,78.14
2023-04-10T03:14:34.830Z,78.43
2023-04-10T03:17:01.196Z,78.72
2023-04-10T03:19:28.043Z,78.60
2023-04-10T03:21:54.543Z,78.50
2023-04-10T03:24:21.165Z,78.06
2023-04-10T03:26:47.544Z,78.25
2023-04-10T03:29:18.760Z,77.99
2023-04-10T03:31:45.975Z,78.71
2023-04-10T03:34:12.467Z,78.38
2023-04-10T03:36:38.900Z,78.20
2023-04-10T03:39:05.830Z,78.20
2023-04-10T03:41:32.307Z,76.71
2023-04-10T03:43:58.792Z,76.34
2023-04-10T03:46:25.313Z,76.38
2023-04-10T03:48:53.810Z,77.53
2023-04-10T03:51:20.566Z,78.02
2023-04-10T03:53:47.108Z,77.83
2023-04-10T03:56:13.548Z,77.84
2023-04-10T03:58:40.133Z,77.91
2023-04-10T04:01:07.633Z,78.89
2023-04-10T04:03:34.399Z,78.79
2023-04-10T04:06:01.178Z,78.89
2023-04-10T04:08:27.608Z,78.99
2023-04-10T04:10:54.012Z,78.06
2023-04-10T04:13:20.474Z,77.89
2023-04-10T04:15:47.786Z,77.93
2023-04-10T04:18:14.288Z,78.29
2023-04-10T04:20:40.963Z,78.58
2023-04-10T04:23:07.340Z,78.20
2023-04-10T04:25:33.774Z,78.80
2023-04-10T04:28:01.117Z,78.59
2023-04-10T04:30:27.541Z,78.34
2023-04-10T04:32:53.999Z,79.08
2023-04-10T04:35:20.820Z,78.15
2023-04-10T04:37:47.285Z,78.79
2023-04-10T04:40:13.737Z,78.44
2023-04-10T04:42:40.278Z,78.48
2023-04-10T04:45:07.622Z,78.82
2023-04-10T04:47:34.110Z,77.93
2023-04-10T04:50:00.606Z,78.19
2023-04-10T04:52:27.516Z,77.84
2023-04-10T04:54:53.958Z,77.51
2023-04-10T04:57:20.565Z,78.22
2023-04-10T04:59:46.954Z,78.44
2023-04-10T05:02:13.446Z,78.80
2023-04-10T05:04:39.922Z,79.23
2023-04-10T05:07:06.301Z,78.65
2023-04-10T05:09:32.669Z,78.50
2023-04-10T05:11:59.108Z,78.11
2023-04-10T05:14:25.607Z,78.03
2023-04-10T05:16:52.151Z,78.89
2023-04-10T05:19:18.625Z,78.71
2023-04-10T05:21:45.190Z,78.32
2023-04-10T05:24:11.848Z,78.83
2023-04-10T05:26:38.361Z,78.80
2023-04-10T05:29:05.093Z,78.96
2023-04-10T05:31:31.549Z,79.37
2023-04-10T05:33:58.091Z,79.42
2023-04-10T05:36:24.526Z,79.27
2023-04-10T05:38:51.113Z,80.03
2023-04-10T05:41:17.534Z,79.69
2023-04-10T05:43:43.902Z,79.40
2023-04-10T05:46:11.699Z,79.71
2023-04-10T05:48:38.886Z,79.85
2023-04-10T05:51:05.655Z,80.03
2023-04-10T05:53:32.210Z,79.68
2023-04-10T05:55:59.585Z,80.28
2023-04-10T05:58:26.880Z,80.07
2023-04-10T06:00:53.274Z,79.97
2023-04-10T06:03:20.168Z,80.46
2023-04-10T06:05:46.860Z,80.19
2023-04-10T06:08:13.342Z,79.58
2023-04-10T06:10:40.858Z,80.13
2023-04-10T06:13:09.828Z,79.71
2023-04-10T06:15:37.583Z,80.06
2023-04-10T06:18:04.189Z,79.55
2023-04-10T06:20:30.686Z,79.60
2023-04-10T06:22:58.931Z,79.64
2023-04-10T06:25:25.393Z,79.60
2023-04-10T06:27:51.996Z,79.79
2023-04-10T06:30:18.547Z,79.27
2023-04-10T06:32:45.046Z,79.38
2023-04-10T06:35:11.898Z,78.89
2023-04-10T06:37:38.362Z,79.15
2023-04-10T06:40:07.554Z,79.35
2023-04-10T06:42:34.467Z,79.43
2023-04-10T06:45:00.964Z,79.55
2023-04-10T06:47:27.607Z,79.87
2023-04-10T06:49:54.079Z,80.19
2023-04-10T06:52:20.773Z,80.69
2023-04-10T06:54:47.425Z,80.23
2023-04-10T06:57:14.087Z,80.65
2023-04-10T06:59:40.522Z,80.63
2023-04-10T07:02:07.835Z,80.75
2023-04-10T07:04:34.405Z,80.98
2023-04-10T07:07:01.168Z,81.09
2023-04-10T07:09:28.098Z,81.14
2023-04-10T07:11:54.504Z,80.76
2023-04-10T07:14:21.117Z,81.62
2023-04-10T07:16:48.692Z,80.26
2023-04-10T07:19:15.567Z,79.93
2023-04-10T07:21:41.966Z,81.16
2023-04-10T07:24:08.543Z,81.68
2023-04-10T07:26:35.189Z,81.89
2023-04-10T07:29:02.320Z,82.04
2023-04-10T07:31:28.892Z,82.12
2023-04-10T07:33:55.614Z,81.05
2023-04-10T07:36:22.146Z,81.45
2023-04-10T07:38:48.666Z,81.03
2023-04-10T07:41:15.303Z,79.90
2023-04-10T07:43:41.691Z,79.55
2023-04-10T07:46:08.224Z,80.18
2023-04-10T07:48:34.695Z,81.33
2023-04-10T07:51:01.332Z,79.92
2023-04-10T07:53:27.861Z,79.70
2023-04-10T07:55:54.370Z,80.66
2023-04-10T07:58:21.343Z,79.97
2023-04-10T08:00:47.964Z,78.54
2023-04-10T08:03:15.956Z,79.19
2023-04-10T08:05:42.618Z,78.78
2023-04-10T08:08:09.118Z,77.15
2023-04-10T08:10:39.221Z,77.87
2023-04-10T08:13:06.115Z,77.54
2023-04-10T08:15:32.580Z,78.07
2023-04-10T08:17:59.048Z,77.81
2023-04-10T08:20:25.715Z,77.40
2023-04-10T08:22:52.204Z,77.13
2023-04-10T08:25:18.659Z,75.81
2023-04-10T08:27:45.063Z,75.81
2023-04-10T08:30:11.871Z,73.76
2023-04-10T08:32:38.916Z,74.37
2023-04-10T08:35:05.944Z,74.26
2023-04-10T08:37:32.367Z,73.12
2023-04-10T08:39:58.880Z,73.31
2023-04-10T08:42:26.223Z,72.44
2023-04-10T08:44:52.707Z,71.88
2023-04-10T08:47:21.637Z,71.17
2023-04-10T08:50:03.850Z,70.63
2023-04-10T08:52:34.268Z,70.24
2023-04-10T08:55:05.966Z,70.41
2023-04-10T08:57:33.047Z,70.05
2023-04-10T09:02:46.814Z,69.95
2023-04-10T09:05:13.654Z,69.85
2023-04-10T09:07:40.578Z,68.62
2023-04-10T09:10:07.830Z,68.12
2023-04-10T09:12:47.850Z,69.01
2023-04-10T09:15:15.285Z,67.79
2023-04-10T09:18:11.077Z,68.44
2023-04-10T09:20:37.613Z,67.30
2023-04-10T09:23:21.404Z,68.31
2023-04-10T09:25:49.310Z,67.53
2023-04-10T09:28:17.179Z,67.44
2023-04-10T09:30:43.754Z,67.42
2023-04-10T09:33:27.885Z,66.82
2023-04-10T09:35:57.265Z,65.96
2023-04-10T09:38:23.820Z,66.63
2023-04-10T09:40:50.786Z,66.03
2023-04-10T09:43:23.042Z,64.60
2023-04-10T09:45:54.476Z,63.56
2023-04-10T09:48:22.382Z,64.61
2023-04-10T09:50:49.223Z,64.31
2023-04-10T09:53:19.464Z,64.00
2023-04-10T09:55:49.976Z,61.49
2023-04-10T09:58:18.880Z,62.50
2023-04-10T10:00:46.985Z,61.54
2023-04-10T10:03:18.617Z,59.94
2023-04-10T10:05:48.306Z,60.94
2023-04-10T10:08:17.165Z,61.63
2023-04-10T10:10:53.354Z,62.29
2023-04-10T10:13:37.438Z,61.66
2023-04-10T10:16:18.202Z,62.17
2023-04-10T10:18:52.253Z,62.10
2023-04-10T10:21:20.815Z,60.76
2023-04-10T10:23:53.808Z,59.24
2023-04-10T10:26:23.667Z,57.76
2023-04-10T10:28:53.175Z,58.77
2023-04-10T10:31:22.490Z,58.33
2023-04-10T10:33:52.466Z,58.67
2023-04-10T10:36:20.294Z,59.62
2023-04-10T10:39:09.573Z,59.50
2023-04-10T10:41:49.605Z,58.66
2023-04-10T10:44:23.328Z,59.74
2023-04-10T10:47:04.426Z,58.77
2023-04-10T10:50:03.672Z,57.80
2023-04-10T10:52:43.854Z,57.87
2023-04-10T10:55:22.216Z,57.84
2023-04-10T10:57:56.265Z,57.05
2023-04-10T11:00:24.585Z,54.14
2023-04-10T11:03:09.408Z,54.77
2023-04-10T11:05:51.599Z,54.65
2023-04-10T11:08:47.091Z,55.03
2023-04-10T11:11:23.372Z,53.48
2023-04-10T11:13:49.769Z,54.24
2023-04-10T11:16:16.398Z,54.19
2023-04-10T11:18:56.155Z,53.63
2023-04-10T11:21:34.100Z,53.85
2023-04-10T11:24:00.607Z,54.61
2023-04-10T11:26:43.680Z,55.47
2023-04-10T11:29:16.046Z,54.37
2023-04-10T11:31:44.325Z,54.50
2023-04-10T11:34:11.229Z,55.78
2023-04-10T11:36:42.246Z,54.42
2023-04-10T11:39:12.983Z,55.27
2023-04-10T11:41:41.621Z,54.34
2023-04-10T11:44:22.579Z,54.14
2023-04-10T11:46:51.018Z,52.96
2023-04-10T11:49:23.654Z,54.09
2023-04-10T11:51:51.202Z,52.73
2023-04-10T11:54:22.849Z,53.83
2023-04-10T11:56:59.948Z,53.58
2023-04-10T11:59:26.981Z,52.24
2023-04-10T12:02:02.978Z,54.00
2023-04-10T12:04:29.652Z,53.71
2023-04-10T12:06:57.365Z,52.77
2023-04-10T12:09:24.168Z,53.82
2023-04-10T12:11:53.944Z,52.96
2023-04-10T12:14:22.265Z,53.18
2023-04-10T12:16:52.803Z,53.91
2023-04-10T12:19:20.594Z,53.32
2023-04-10T12:21:47.675Z,52.41
2023-04-10T12:25:01.286Z,54.48
2023-04-10T12:27:28.810Z,55.15
2023-04-10T12:29:57.021Z,53.66
2023-04-10T12:32:27.159Z,53.97
2023-04-10T12:34:58.498Z,55.37
2023-04-10T12:37:45.997Z,54.40
2023-04-10T12:40:13.318Z,53.22
2023-04-10T12:42:41.974Z,54.29
2023-04-10T12:45:10.035Z,55.39
2023-04-10T12:47:48.963Z,54.66
2023-04-10T12:50:16.985Z,55.25
2023-04-10T12:52:46.009Z,53.92
2023-04-10T12:55:12.612Z,53.21
2023-04-10T12:57:43.569Z,53.68
2023-04-10T13:00:12.561Z,53.41
2023-04-10T13:02:39.647Z,54.99
2023-04-10T13:05:07.633Z,55.28
2023-04-10T13:07:34.263Z,54.65
2023-04-10T13:10:00.817Z,54.11
2023-04-10T13:12:28.886Z,55.57
2023-04-10T13:14:55.498Z,54.33
2023-04-10T13:17:25.414Z,53.76
2023-04-10T13:19:52.486Z,53.91
2023-04-10T13:22:19.709Z,54.06
2023-04-10T13:24:46.378Z,55.03
2023-04-10T13:27:13.134Z,54.46
2023-04-10T13:29:41.956Z,55.56
2023-04-10T13:32:09.049Z,55.84
2023-04-10T13:34:35.951Z,55.20
2023-04-10T13:37:02.965Z,55.17
2023-04-10T13:39:31.218Z,53.91
2023-04-10T13:41:59.122Z,56.00
2023-04-10T13:44:25.741Z,56.59
2023-04-10T13:46:52.384Z,56.38
2023-04-10T13:49:20.247Z,55.83
2023-04-10T13:51:47.275Z,56.60
2023-04-10T13:54:16.868Z,56.76
2023-04-10T13:56:47.874Z,55.97
2023-04-10T13:59:14.379Z,55.79
2023-04-10T14:01:41.002Z,56.31
2023-04-10T14:04:07.591Z,56.92
2023-04-10T14:06:34.528Z,56.57
2023-04-10T14:09:01.139Z,56.35
2023-04-10T14:11:27.740Z,57.62
2023-04-10T14:13:54.400Z,57.42
2023-04-10T14:16:21.787Z,56.62
2023-04-10T14:18:48.433Z,56.59
2023-04-10T14:21:15.020Z,56.70
2023-04-10T14:23:42.590Z,56.71
2023-04-10T14:26:09.456Z,56.09
2023-04-10T14:28:36.270Z,57.91
2023-04-10T14:31:05.198Z,57.18
2023-04-10T14:33:32.149Z,56.28
2023-04-10T14:35:58.801Z,57.26
2023-04-10T14:38:25.288Z,57.20
2023-04-10T14:40:52.183Z,55.98
2023-04-10T14:43:19.384Z,56.44
2023-04-10T14:45:45.929Z,56.38
2023-04-10T14:48:12.926Z,56.95
2023-04-10T14:50:39.921Z,57.75
2023-04-10T14:53:09.416Z,56.18
2023-04-10T14:55:36.852Z,56.98
2023-04-10T14:58:04.054Z,55.82
2023-04-10T15:00:30.528Z,57.08
2023-04-10T15:02:57.469Z,57.15
2023-04-10T15:05:25.884Z,57.25
2023-04-10T15:07:52.389Z,57.69
2023-04-10T15:10:19.244Z,57.59
2023-04-10T15:12:45.689Z,58.37
2023-04-10T15:15:12.104Z,57.41
2023-04-10T15:17:38.716Z,57.75
2023-04-10T15:20:05.813Z,58.51
2023-04-10T15:22:32.353Z,57.38
2023-04-10T15:24:59.135Z,56.44
2023-04-10T15:27:25.624Z,55.86
2023-04-10T15:29:52.091Z,57.14
2023-04-10T15:32:18.724Z,57.44
2023-04-10T15:34:45.306Z,56.20
2023-04-10T15:37:11.974Z,57.26
2023-04-10T15:39:38.629Z,57.63
2023-04-10T15:42:06.092Z,56.23
2023-04-10T15:44:32.802Z,55.79
2023-04-10T15:46:59.949Z,55.89
2023-04-10T15:49:36.132Z,57.23
2023-04-10T15:52:05.982Z,56.66
2023-04-10T15:54:36.324Z,57.07
2023-04-10T15:57:03.771Z,56.38
2023-04-10T15:59:31.031Z,56.77
2023-04-10T16:01:57.629Z,56.37
2023-04-10T16:04:24.446Z,55.90
2023-04-10T16:06:51.116Z,56.86
2023-04-10T16:09:25.310Z,56.30
2023-04-10T16:11:53.483Z,56.66
2023-04-10T16:14:20.038Z,57.10
2023-04-10T16:16:46.607Z,57.10
2023-04-10T16:19:13.169Z,56.77
2023-04-10T16:21:40.020Z,55.65
2023-04-10T16:24:06.802Z,56.83
2023-04-10T16:26:33.316Z,55.79
2023-04-10T16:28:59.738Z,56.96
2023-04-10T16:31:26.319Z,56.99
2023-04-10T16:33:52.952Z,56.15
2023-04-10T16:36:19.427Z,55.78
2023-04-10T16:38:49.544Z,56.99
2023-04-10T16:41:18.263Z,55.41
2023-04-10T16:43:44.806Z,56.58
2023-04-10T16:46:11.333Z,57.07
2023-04-10T16:48:38.335Z,56.48
2023-04-10T16:51:06.682Z,57.10
2023-04-10T16:53:35.686Z,57.97
2023-04-10T16:56:04.492Z,56.73
2023-04-10T16:58:32.975Z,56.03
2023-04-10T17:00:59.542Z,57.57
2023-04-10T17:03:26.146Z,56.07
2023-04-10T17:05:52.574Z,56.45
2023-04-10T17:08:18.959Z,57.53
2023-04-10T17:10:45.503Z,57.04
2023-04-10T17:13:12.072Z,56.91
2023-04-10T17:15:38.501Z,58.51
2023-04-10T17:18:05.055Z,58.66
2023-04-10T17:20:35.916Z,59.59
2023-04-10T17:23:02.782Z,58.57
2023-04-10T17:25:29.272Z,59.92
2023-04-10T17:27:57.025Z,58.30
2023-04-10T17:30:23.584Z,59.22
2023-04-10T17:32:50.075Z,57.83
2023-04-10T17:35:16.658Z,59.64
2023-04-10T17:37:43.109Z,59.06
2023-04-10T17:40:10.903Z,59.71
2023-04-10T17:42:37.401Z,59.82
2023-04-10T17:45:04.138Z,59.90
2023-04-10T17:47:30.709Z,60.43
2023-04-10T17:49:57.300Z,59.95
2023-04-10T17:52:23.946Z,60.29
2023-04-10T17:54:50.451Z,60.66
2023-04-10T17:57:17.039Z,61.25
2023-04-10T17:59:43.604Z,61.84
2023-04-10T18:02:10.116Z,61.81
2023-04-10T18:04:37.027Z,62.29
2023-04-10T18:07:03.432Z,62.78
2023-04-10T18:09:29.933Z,62.06
2023-04-10T18:11:56.352Z,62.76
2023-04-10T18:14:22.832Z,62.79
2023-04-10T18:16:49.408Z,63.27
2023-04-10T18:19:15.900Z,63.39
2023-04-10T18:21:42.310Z,63.96
2023-04-10T18:24:12.189Z,64.96
2023-04-10T18:26:38.672Z,64.67
2023-04-10T18:29:05.350Z,64.07
2023-04-10T18:31:32.099Z,63.94
2023-04-10T18:34:07.041Z,64.65
2023-04-10T18:36:33.996Z,64.00
2023-04-10T18:39:00.497Z,64.28
2023-04-10T18:41:27.052Z,64.06
2023-04-10T18:44:01.677Z,63.09
2023-04-10T18:46:32.448Z,63.11
2023-04-10T18:49:00.986Z,63.67
2023-04-10T18:51:28.034Z,63.06
2023-04-10T18:53:54.719Z,62.99
2023-04-10T18:56:21.509Z,63.24
2023-04-10T18:58:49.876Z,62.85
2023-04-10T19:01:17.628Z,62.76
2023-04-10T19:03:47.833Z,63.16
2023-04-10T19:06:17.255Z,62.72
2023-04-10T19:08:43.811Z,62.93
2023-04-10T19:11:10.471Z,63.56
2023-04-10T19:13:36.980Z,63.20
2023-04-10T19:16:04.560Z,63.52
2023-04-10T19:18:31.490Z,63.16
2023-04-10T19:20:59.161Z,62.81
2023-04-10T19:23:26.519Z,63.02
2023-04-10T19:25:54.631Z,62.89
2023-04-10T19:28:23.312Z,62.98
2023-04-10T19:30:50.068Z,62.59
2023-04-10T19:33:17.245Z,62.93
2023-04-10T19:35:43.820Z,62.43
2023-04-10T19:38:10.522Z,63.47
2023-04-10T19:40:37.292Z,63.46
2023-04-10T19:43:04.050Z,62.90
2023-04-10T19:45:32.255Z,61.98
2023-04-10T19:47:58.948Z,62.80
2023-04-10T19:50:28.250Z,62.30
2023-04-10T19:52:54.716Z,62.44
2023-04-10T19:55:21.275Z,62.24
2023-04-10T19:57:48.092Z,62.29
2023-04-10T20:00:14.880Z,61.84
2023-04-10T20:02:41.709Z,61.71
2023-04-10T20:05:08.821Z,61.46
2023-04-10T20:07:35.766Z,61.00
2023-04-10T20:10:04.270Z,61.96
2023-04-10T20:12:33.166Z,61.09
2023-04-10T20:15:04.134Z,60.98
2023-04-10T20:17:31.156Z,60.50
2023-04-10T20:19:57.702Z,59.81
2023-04-10T20:22:24.417Z,59.72
2023-04-10T20:24:50.985Z,59.70
2023-04-10T20:27:17.763Z,60.21
2023-04-10T20:29:44.308Z,58.93
2023-04-10T20:32:10.808Z,59.27
2023-04-10T20:34:37.300Z,58.67
2023-04-10T20:37:05.751Z,58.71
2023-04-10T20:39:33.225Z,58.65
2023-04-10T20:41:59.888Z,58.05
2023-04-10T20:44:26.407Z,57.75
2023-04-10T20:46:52.863Z,57.60
2023-04-10T20:49:19.397Z,57.50
2023-04-10T20:51:47.098Z,57.09
2023-04-10T20:54:13.627Z,55.84
2023-04-10T20:56:43.432Z,56.46
2023-04-10T20:59:10.695Z,55.99
2023-04-10T21:01:37.373Z,56.36
2023-04-10T21:04:04.177Z,55.37
2023-04-10T21:06:33.209Z,55.98
2023-04-10T21:08:59.639Z,56.27
2023-04-10T21:11:27.190Z,55.89
2023-04-10T21:13:54.242Z,55.45
2023-04-10T21:16:21.091Z,54.92
2023-04-10T21:18:47.778Z,55.15
2023-04-10T21:21:14.546Z,55.20
2023-04-10T21:23:41.263Z,55.01
2023-04-10T21:26:07.971Z,54.35
2023-04-10T21:28:34.450Z,54.79
2023-04-10T21:31:00.872Z,54.77
2023-04-10T21:33:27.378Z,53.93
2023-04-10T21:35:53.866Z,54.35
2023-04-10T21:38:20.420Z,54.44
2023-04-10T21:40:53.984Z,54.57
2023-04-10T21:43:21.333Z,54.84
2023-04-10T21:45:47.935Z,54.27
2023-04-10T21:48:14.467Z,54.22
2023-04-10T21:50:41.989Z,54.31
2023-04-10T21:53:08.422Z,54.89
2023-04-10T21:55:34.964Z,55.07
2023-04-10T21:58:01.384Z,54.88
2023-04-10T22:00:28.757Z,54.76
2023-04-10T22:02:55.832Z,54.50
2023-04-10T22:05:24.248Z,54.21
2023-04-10T22:07:50.965Z,54.54
2023-04-10T22:10:17.688Z,54.51
2023-04-10T22:12:45.957Z,54.79
2023-04-10T22:15:14.527Z,54.46
2023-04-10T22:17:41.079Z,54.23
2023-04-10T22:20:07.859Z,54.62
2023-04-10T22:22:34.302Z,54.26
2023-04-10T22:25:00.752Z,54.39
2023-04-10T22:27:27.193Z,54.68
2023-04-10T22:30:02.723Z,54.43
2023-04-10T22:32:30.405Z,54.83
2023-04-10T22:34:58.706Z,54.57
2023-04-10T22:37:25.186Z,55.35
2023-04-10T22:39:51.636Z,54.92
2023-04-10T22:42:18.031Z,54.83
2023-04-10T22:44:45.435Z,54.91
2023-04-10T22:47:12.018Z,54.90
2023-04-10T22:49:38.418Z,54.92
2023-04-10T22:52:05.004Z,55.66
2023-04-10T22:54:31.522Z,54.74
2023-04-10T22:56:57.929Z,55.47
2023-04-10T22:59:24.462Z,55.89
2023-04-10T23:01:51.428Z,55.90
2023-04-10T23:04:18.036Z,55.17
2023-04-10T23:06:44.525Z,55.50
2023-04-10T23:09:10.968Z,55.91
2023-04-10T23:11:37.421Z,55.65
2023-04-10T23:14:03.881Z,55.43
2023-04-10T23:16:30.348Z,55.94
2023-04-10T23:18:57.144Z,54.88
2023-04-10T23:21:23.738Z,55.66
2023-04-10T23:23:50.161Z,55.71
2023-04-10T23:26:16.550Z,56.20
2023-04-10T23:28:42.944Z,56.80
2023-04-10T23:31:09.605Z,55.91
2023-04-10T23:33:36.022Z,55.90
2023-04-10T23:36:02.585Z,56.46
2023-04-10T23:38:29.176Z,55.98
2023-04-10T23:40:55.616Z,55.69
2023-04-10T23:43:22.256Z,55.52
2023-04-10T23:45:48.746Z,56.08
2023-04-10T23:48:15.267Z,55.83
2023-04-10T23:50:41.752Z,56.32
2023-04-10T23:53:11.821Z,56.24
2023-04-10T23:55:39.576Z,56.58
2023-04-10T23:58:06.081Z,56.40
